Back to Top

Language: 

My Weather Underground Personal Weather Station Historical Data with Graphs...

Delerius Weather Station Historical Data
Daily Summary for July 29, 2017 Units:  Metric    English   Both
« Previous Day
Next Day »
Daily Weekly Monthly Yearly Custom
  High: Low: Average:
Temperature: 20 °C 12.9 °C 16.7 °C
Dew Point: 14.8 °C 10.1 °C 11.9 °C
Humidity: 94 % 54 % 74 %
Wind Speed: 20.9 km/h 0 km/h 12.4 km/h
Wind Gust: 37 km/h - -
Wind:- - WSW
Pressure: 1006 hPa 1000.6 hPa -
Precipitation: 0 mm    
Historical Graphs
 
 
Tabular Data for July 29, 2017
Time Temperature Dew Point Pressure Wind Wind Speed Wind Gust Humidity Rainfall Rate (Hourly) solar Conditions
00:04 15.8 °C 14.8 °C 1000.6 hPa West 11.3 km/h 19.3 km/h 94 % 0 mm 0 W/m2
00:09 15.8 °C 14.8 °C 1000.6 hPa West 11.3 km/h 24.1 km/h 94 % 0 mm 0 W/m2
00:14 15.8 °C 14.8 °C 1000.6 hPa West 14.5 km/h 25.7 km/h 94 % 0 mm 0 W/m2
00:19 15.7 °C 14.7 °C 1000.6 hPa West 14.5 km/h 25.7 km/h 94 % 0 mm 0 W/m2
00:29 15.5 °C 14.4 °C 1000.9 hPa West 12.9 km/h 30.6 km/h 93 % 0 mm 0 W/m2
00:34 15.3 °C 14.2 °C 1000.9 hPa West 16.1 km/h 30.6 km/h 93 % 0 mm 0 W/m2
00:39 15.2 °C 13.9 °C 1000.9 hPa West 16.1 km/h 25.7 km/h 92 % 0 mm 0 W/m2
00:44 15.1 °C 13.8 °C 1000.9 hPa West 16.1 km/h 25.7 km/h 92 % 0 mm 0 W/m2
00:49 15.1 °C 13.8 °C 1001.2 hPa West 16.1 km/h 25.7 km/h 92 % 0 mm 0 W/m2
00:54 15 °C 13.7 °C 1001.2 hPa West 16.1 km/h 25.7 km/h 92 % 0 mm 0 W/m2
00:59 14.9 °C 13.6 °C 1001.2 hPa West 16.1 km/h 25.7 km/h 92 % 0 mm 0 W/m2
01:04 14.9 °C 13.6 °C 1001.2 hPa WNW 14.5 km/h 24.1 km/h 92 % 0 mm 0 W/m2
01:09 14.8 °C 13.5 °C 1001.6 hPa West 14.5 km/h 30.6 km/h 92 % 0 mm 0 W/m2
01:14 14.8 °C 13.5 °C 1001.6 hPa WNW 14.5 km/h 30.6 km/h 92 % 0 mm 0 W/m2
01:19 14.8 °C 13.5 °C 1001.6 hPa WNW 14.5 km/h 20.9 km/h 92 % 0 mm 0 W/m2
01:24 14.8 °C 13.3 °C 1001.6 hPa West 14.5 km/h 20.9 km/h 91 % 0 mm 0 W/m2
01:29 14.7 °C 13.2 °C 1001.9 hPa West 14.5 km/h 22.5 km/h 91 % 0 mm 0 W/m2
01:34 14.7 °C 13.4 °C 1001.9 hPa West 12.9 km/h 22.5 km/h 92 % 0 mm 0 W/m2
01:40 14.6 °C 13.3 °C 1001.9 hPa West 14.5 km/h 24.1 km/h 92 % 0 mm 0 W/m2
01:45 14.6 °C 13.2 °C 1001.9 hPa West 16.1 km/h 30.6 km/h 91 % 0 mm 0 W/m2
01:50 14.6 °C 13.2 °C 1001.9 hPa West 16.1 km/h 30.6 km/h 91 % 0 mm 0 W/m2
01:55 14.7 °C 13.2 °C 1001.9 hPa West 17.7 km/h 30.6 km/h 91 % 0 mm 0 W/m2
02:00 14.7 °C 13.1 °C 1001.9 hPa West 16.1 km/h 30.6 km/h 90 % 0 mm 0 W/m2
02:05 14.7 °C 13.1 °C 1001.9 hPa West 14.5 km/h 25.7 km/h 90 % 0 mm 0 W/m2
02:10 14.7 °C 13.1 °C 1001.9 hPa West 16.1 km/h 24.1 km/h 90 % 0 mm 0 W/m2
02:14 14.7 °C 13.1 °C 1001.9 hPa West 14.5 km/h 22.5 km/h 90 % 0 mm 0 W/m2
02:19 14.6 °C 13 °C 1001.9 hPa West 12.9 km/h 22.5 km/h 90 % 0 mm 0 W/m2
02:24 14.6 °C 13 °C 1001.9 hPa West 14.5 km/h 22.5 km/h 90 % 0 mm 0 W/m2
02:30 14.4 °C 12.8 °C 1001.9 hPa West 14.5 km/h 25.7 km/h 90 % 0 mm 0 W/m2
02:35 14.4 °C 12.8 °C 1001.9 hPa West 14.5 km/h 25.7 km/h 90 % 0 mm 0 W/m2
02:40 14.4 °C 12.6 °C 1002.3 hPa West 16.1 km/h 25.7 km/h 89 % 0 mm 0 W/m2
02:45 14.4 °C 12.6 °C 1001.9 hPa West 17.7 km/h 32.2 km/h 89 % 0 mm 0 W/m2
02:50 14.4 °C 12.4 °C 1002.3 hPa West 17.7 km/h 33.8 km/h 88 % 0 mm 0 W/m2
02:55 14.4 °C 12.4 °C 1002.3 hPa West 17.7 km/h 33.8 km/h 88 % 0 mm 0 W/m2
03:00 14.4 °C 12.3 °C 1002.3 hPa West 16.1 km/h 25.7 km/h 87 % 0 mm 0 W/m2
03:05 14.3 °C 12.2 °C 1002.3 hPa West 16.1 km/h 25.7 km/h 87 % 0 mm 0 W/m2
03:10 14.2 °C 12.1 °C 1002.3 hPa West 17.7 km/h 29 km/h 87 % 0 mm 0 W/m2
03:13 14.2 °C 12.1 °C 1002.6 hPa West 17.7 km/h 29 km/h 87 % 0 mm 0 W/m2
03:18 14.2 °C 12.1 °C 1002.6 hPa West 16.1 km/h 29 km/h 87 % 0 mm 0 W/m2
03:23 14.2 °C 12.1 °C 1002.6 hPa West 14.5 km/h 24.1 km/h 87 % 0 mm 0 W/m2
03:28 14.2 °C 12.2 °C 1002.6 hPa West 12.9 km/h 19.3 km/h 88 % 0 mm 0 W/m2
03:33 14.1 °C 12.2 °C 1002.9 hPa West 12.9 km/h 20.9 km/h 88 % 0 mm 0 W/m2
03:38 14.2 °C 12.2 °C 1002.9 hPa West 14.5 km/h 20.9 km/h 88 % 0 mm 0 W/m2
03:43 14.2 °C 12.2 °C 1002.9 hPa West 12.9 km/h 20.9 km/h 88 % 0 mm 0 W/m2
03:48 14.1 °C 12.2 °C 1002.9 hPa West 14.5 km/h 30.6 km/h 88 % 0 mm 0 W/m2
03:53 14.1 °C 12.2 °C 1002.9 hPa West 16.1 km/h 30.6 km/h 88 % 0 mm 0 W/m2
03:58 14 °C 11.9 °C 1002.6 hPa West 16.1 km/h 29 km/h 87 % 0 mm 0 W/m2
04:03 13.9 °C 11.8 °C 1002.9 hPa West 16.1 km/h 29 km/h 87 % 0 mm 0 W/m2
04:08 13.8 °C 11.5 °C 1002.9 hPa West 16.1 km/h 29 km/h 86 % 0 mm 0 W/m2
04:13 13.8 °C 11.5 °C 1002.9 hPa West 16.1 km/h 29 km/h 86 % 0 mm 0 W/m2
04:18 13.8 °C 11.5 °C 1002.9 hPa West 14.5 km/h 29 km/h 86 % 0 mm 0 W/m2
04:23 13.8 °C 11.5 °C 1003.3 hPa West 12.9 km/h 29 km/h 86 % 0 mm 0 W/m2
04:28 13.7 °C 11.4 °C 1003.3 hPa West 11.3 km/h 16.1 km/h 86 % 0 mm 0 W/m2
04:33 13.7 °C 11.6 °C 1003.3 hPa West 9.7 km/h 16.1 km/h 87 % 0 mm 0 W/m2
04:38 13.7 °C 11.6 °C 1003.3 hPa WSW 6.4 km/h 16.1 km/h 87 % 0 mm 0 W/m2
04:43 13.6 °C 11.5 °C 1003.3 hPa WSW 6.4 km/h 16.1 km/h 87 % 0 mm 0 W/m2
04:48 13.6 °C 11.7 °C 1003.3 hPa West 9.7 km/h 16.1 km/h 88 % 0 mm 0 W/m2
04:53 13.6 °C 11.7 °C 1003.6 hPa West 12.9 km/h 24.1 km/h 88 % 0 mm 0 W/m2
04:58 13.6 °C 11.7 °C 1003.6 hPa West 14.5 km/h 24.1 km/h 88 % 0 mm 0 W/m2
05:03 13.6 °C 11.5 °C 1003.6 hPa WSW 14.5 km/h 24.1 km/h 87 % 0 mm 0 W/m2
05:08 13.5 °C 11.4 °C 1003.6 hPa WSW 12.9 km/h 24.1 km/h 87 % 0 mm 0 W/m2
05:13 13.4 °C 11.3 °C 1003.6 hPa West 12.9 km/h 25.7 km/h 87 % 0 mm 0 W/m2
05:18 13.3 °C 11.2 °C 1003.6 hPa West 12.9 km/h 25.7 km/h 87 % 0 mm 5 W/m2
05:23 13.3 °C 11.2 °C 1003.9 hPa WSW 12.9 km/h 24.1 km/h 87 % 0 mm 7 W/m2
05:28 13.2 °C 11.1 °C 1003.9 hPa WSW 11.3 km/h 20.9 km/h 87 % 0 mm 9 W/m2
05:33 13.2 °C 11.1 °C 1003.9 hPa WSW 11.3 km/h 19.3 km/h 87 % 0 mm 9 W/m2
05:38 13.2 °C 10.9 °C 1003.9 hPa WSW 12.9 km/h 29 km/h 86 % 0 mm 9 W/m2
05:48 13.1 °C 10.8 °C 1003.9 hPa WSW 9.7 km/h 19.3 km/h 86 % 0 mm 11 W/m2
05:53 13 °C 10.7 °C 1003.9 hPa WSW 9.7 km/h 16.1 km/h 86 % 0 mm 14 W/m2
05:58 13 °C 10.7 °C 1003.9 hPa WSW 9.7 km/h 16.1 km/h 86 % 0 mm 23 W/m2
06:03 13 °C 10.7 °C 1004.3 hPa SW 8 km/h 12.9 km/h 86 % 0 mm 32 W/m2
06:05 12.9 °C 10.6 °C 1003.9 hPa SW 8 km/h 12.9 km/h 86 % 0 mm 37 W/m2
06:10 12.9 °C 10.8 °C 1004.3 hPa SW 8 km/h 12.9 km/h 87 % 0 mm 40 W/m2
06:15 12.9 °C 10.8 °C 1004.3 hPa SW 8 km/h 16.1 km/h 87 % 0 mm 35 W/m2
06:20 13 °C 10.9 °C 1004.3 hPa SW 9.7 km/h 16.1 km/h 87 % 0 mm 69 W/m2
06:25 13.1 °C 11 °C 1004.3 hPa SW 8 km/h 12.9 km/h 87 % 0 mm 58 W/m2
06:30 13.1 °C 11 °C 1004.3 hPa SSW 9.7 km/h 17.7 km/h 87 % 0 mm 113 W/m2
06:35 13.3 °C 11 °C 1004.3 hPa SSW 9.7 km/h 17.7 km/h 86 % 0 mm 104 W/m2
06:40 13.4 °C 11.3 °C 1004.3 hPa SW 8 km/h 16.1 km/h 87 % 0 mm 121 W/m2
06:46 13.6 °C 11.3 °C 1004.3 hPa SSW 8 km/h 16.1 km/h 86 % 0 mm 142 W/m2
06:51 13.7 °C 11.4 °C 1004.3 hPa SW 9.7 km/h 14.5 km/h 86 % 0 mm 86 W/m2
06:56 13.8 °C 11.3 °C 1004.6 hPa SW 9.7 km/h 16.1 km/h 85 % 0 mm 32 W/m2
07:01 13.8 °C 11.3 °C 1004.6 hPa SW 11.3 km/h 25.7 km/h 85 % 0 mm 35 W/m2
07:06 13.8 °C 11.2 °C 1004.6 hPa SW 11.3 km/h 25.7 km/h 84 % 0 mm 39 W/m2
07:11 13.9 °C 11.2 °C 1004.6 hPa SW 11.3 km/h 19.3 km/h 84 % 0 mm 42 W/m2
07:16 14.1 °C 11.3 °C 1004.6 hPa SW 11.3 km/h 20.9 km/h 83 % 0 mm 193 W/m2
07:21 14.2 °C 11.6 °C 1004.6 hPa SW 11.3 km/h 20.9 km/h 84 % 0 mm 236 W/m2
07:26 14.3 °C 11.3 °C 1004.6 hPa SW 11.3 km/h 20.9 km/h 82 % 0 mm 246 W/m2
07:31 14.4 °C 11.4 °C 1005 hPa SW 11.3 km/h 20.9 km/h 82 % 0 mm 262 W/m2
07:36 14.6 °C 11.4 °C 1005 hPa SW 11.3 km/h 19.3 km/h 81 % 0 mm 278 W/m2
07:41 14.7 °C 11.4 °C 1004.6 hPa SW 11.3 km/h 19.3 km/h 81 % 0 mm 285 W/m2
07:46 14.9 °C 11.7 °C 1005 hPa SW 9.7 km/h 17.7 km/h 81 % 0 mm 308 W/m2
07:51 15.1 °C 11.9 °C 1005 hPa SW 11.3 km/h 19.3 km/h 81 % 0 mm 330 W/m2
07:56 15.3 °C 11.5 °C 1005 hPa WSW 12.9 km/h 20.9 km/h 78 % 0 mm 369 W/m2
08:01 15.5 °C 11.7 °C 1005 hPa WSW 11.3 km/h 20.9 km/h 78 % 0 mm 380 W/m2
08:06 15.7 °C 11.7 °C 1005 hPa WSW 9.7 km/h 19.3 km/h 77 % 0 mm 459 W/m2
08:11 15.9 °C 11.4 °C 1005 hPa WSW 11.3 km/h 24.1 km/h 75 % 0 mm 287 W/m2
08:16 15.9 °C 11.4 °C 1005 hPa WSW 12.9 km/h 24.1 km/h 75 % 0 mm 313 W/m2
08:21 15.9 °C 11.4 °C 1005 hPa WSW 12.9 km/h 22.5 km/h 75 % 0 mm 450 W/m2
08:26 15.9 °C 11.4 °C 1005 hPa WSW 12.9 km/h 24.1 km/h 75 % 0 mm 476 W/m2
08:31 16.1 °C 11.7 °C 1005 hPa WSW 14.5 km/h 29 km/h 75 % 0 mm 548 W/m2
08:36 16.1 °C 11.4 °C 1005 hPa WSW 16.1 km/h 29 km/h 74 % 0 mm 422 W/m2
08:41 16.1 °C 11.4 °C 1005 hPa WSW 16.1 km/h 24.1 km/h 74 % 0 mm 547 W/m2
08:46 16.3 °C 11.7 °C 1005 hPa WSW 14.5 km/h 24.1 km/h 74 % 0 mm 566 W/m2
08:51 16.4 °C 11.6 °C 1005 hPa WSW 14.5 km/h 24.1 km/h 73 % 0 mm 134 W/m2
09:01 16.6 °C 11.7 °C 1005.3 hPa WSW 12.9 km/h 29 km/h 73 % 0 mm 172 W/m2
09:06 16.5 °C 11.4 °C 1005.3 hPa WSW 14.5 km/h 29 km/h 72 % 0 mm 192 W/m2
09:11 16.3 °C 11.4 °C 1005.3 hPa WSW 16.1 km/h 29 km/h 73 % 0 mm 227 W/m2
09:16 16.2 °C 11.3 °C 1005.3 hPa SW 16.1 km/h 25.7 km/h 73 % 0 mm 172 W/m2
09:22 16.2 °C 11.8 °C 1005.3 hPa SW 12.9 km/h 22.5 km/h 75 % 0 mm 596 W/m2
09:27 16.6 °C 12.2 °C 1005.3 hPa SW 12.9 km/h 25.7 km/h 75 % 0 mm 585 W/m2
09:32 16.8 °C 11.9 °C 1005.6 hPa WSW 16.1 km/h 32.2 km/h 73 % 0 mm 666 W/m2
09:42 17.4 °C 11.9 °C 1005.6 hPa WSW 16.1 km/h 32.2 km/h 70 % 0 mm 236 W/m2
09:47 17.3 °C 11.8 °C 1005.6 hPa WSW 17.7 km/h 33.8 km/h 70 % 0 mm 211 W/m2
09:52 17.2 °C 11.4 °C 1005.6 hPa WSW 17.7 km/h 33.8 km/h 69 % 0 mm 178 W/m2
09:57 17.2 °C 11.4 °C 1005.6 hPa WSW 17.7 km/h 25.7 km/h 69 % 0 mm 729 W/m2
10:02 17.6 °C 11.6 °C 1006 hPa WSW 17.7 km/h 33.8 km/h 68 % 0 mm 782 W/m2
10:07 17.7 °C 11.5 °C 1005.6 hPa WSW 17.7 km/h 33.8 km/h 67 % 0 mm 756 W/m2
10:12 18 °C 12 °C 1006 hPa WSW 16.1 km/h 32.2 km/h 68 % 0 mm 914 W/m2
10:17 18.3 °C 12.1 °C 1006 hPa WSW 14.5 km/h 32.2 km/h 67 % 0 mm 870 W/m2
10:22 18.5 °C 12.5 °C 1006 hPa SW 14.5 km/h 29 km/h 68 % 0 mm 577 W/m2
10:27 18.6 °C 11.9 °C 1005.6 hPa WSW 14.5 km/h 25.7 km/h 65 % 0 mm 223 W/m2
10:32 18.3 °C 11.6 °C 1006 hPa WSW 16.1 km/h 29 km/h 65 % 0 mm 345 W/m2
10:37 18 °C 11.3 °C 1006 hPa WSW 17.7 km/h 30.6 km/h 65 % 0 mm 292 W/m2
10:42 17.7 °C 11.1 °C 1006 hPa SW 19.3 km/h 30.6 km/h 65 % 0 mm 148 W/m2
10:47 17.4 °C 11.2 °C 1006 hPa SW 17.7 km/h 30.6 km/h 67 % 0 mm 167 W/m2
10:52 17.3 °C 11.3 °C 1006 hPa WSW 14.5 km/h 25.7 km/h 68 % 0 mm 267 W/m2
10:57 17.3 °C 11.6 °C 1006 hPa WSW 14.5 km/h 25.7 km/h 69 % 0 mm 930 W/m2
11:02 17.8 °C 12.1 °C 1006 hPa WSW 14.5 km/h 32.2 km/h 69 % 0 mm 956 W/m2
11:07 18.4 °C 12.2 °C 1006 hPa WSW 16.1 km/h 35.4 km/h 67 % 0 mm 997 W/m2
11:12 18.3 °C 11.4 °C 1005.6 hPa WSW 19.3 km/h 35.4 km/h 64 % 0 mm 325 W/m2
11:17 18.2 °C 11.5 °C 1005.6 hPa WSW 17.7 km/h 32.2 km/h 65 % 0 mm 795 W/m2
11:22 18.4 °C 11.9 °C 1005.6 hPa WSW 16.1 km/h 24.1 km/h 66 % 0 mm 1107 W/m2
11:27 18.7 °C 11.7 °C 1006 hPa WSW 16.1 km/h 32.2 km/h 64 % 0 mm 408 W/m2
11:32 18.7 °C 11.7 °C 1006 hPa SW 17.7 km/h 32.2 km/h 64 % 0 mm 459 W/m2
11:37 18.4 °C 11.4 °C 1006 hPa SW 19.3 km/h 32.2 km/h 64 % 0 mm 283 W/m2
11:42 18.3 °C 11.6 °C 1006 hPa WSW 17.7 km/h 32.2 km/h 65 % 0 mm 295 W/m2
11:47 18.2 °C 11.9 °C 1006 hPa WSW 14.5 km/h 32.2 km/h 67 % 0 mm 329 W/m2
11:52 18.1 °C 11.7 °C 1006 hPa WSW 12.9 km/h 22.5 km/h 66 % 0 mm 327 W/m2
11:57 18.2 °C 11.7 °C 1006 hPa WSW 12.9 km/h 25.7 km/h 66 % 0 mm 290 W/m2
12:02 18.3 °C 11.8 °C 1006 hPa WSW 12.9 km/h 25.7 km/h 66 % 0 mm 445 W/m2
12:07 18.3 °C 11.4 °C 1006 hPa WSW 19.3 km/h 37 km/h 64 % 0 mm 343 W/m2
12:09 18.3 °C 11.4 °C 1006 hPa WSW 19.3 km/h 37 km/h 64 % 0 mm 345 W/m2
12:14 18.1 °C 11.2 °C 1006 hPa WSW 20.9 km/h 33.8 km/h 64 % 0 mm 427 W/m2
12:19 18.2 °C 11.3 °C 1006 hPa WSW 19.3 km/h 32.2 km/h 64 % 0 mm 584 W/m2
12:24 18.4 °C 11.4 °C 1006 hPa WSW 17.7 km/h 32.2 km/h 64 % 0 mm 427 W/m2
12:29 18.5 °C 11.6 °C 1006 hPa SW 17.7 km/h 37 km/h 64 % 0 mm 390 W/m2
12:34 18.2 °C 11.3 °C 1006 hPa SW 19.3 km/h 37 km/h 64 % 0 mm 315 W/m2
12:39 18 °C 11.3 °C 1006 hPa SW 20.9 km/h 33.8 km/h 65 % 0 mm 260 W/m2
12:44 17.8 °C 11.6 °C 1006 hPa SW 19.3 km/h 32.2 km/h 67 % 0 mm 255 W/m2
12:49 17.7 °C 11.7 °C 1006 hPa SW 17.7 km/h 29 km/h 68 % 0 mm 246 W/m2
12:54 17.7 °C 11.3 °C 1006 hPa SW 17.7 km/h 32.2 km/h 66 % 0 mm 204 W/m2
12:59 17.6 °C 11.4 °C 1006 hPa SW 17.7 km/h 32.2 km/h 67 % 0 mm 237 W/m2
13:04 17.5 °C 11.5 °C 1006 hPa SW 19.3 km/h 33.8 km/h 68 % 0 mm 258 W/m2
13:09 17.4 °C 11.7 °C 1006 hPa SW 19.3 km/h 33.8 km/h 69 % 0 mm 339 W/m2
13:14 17.4 °C 11.7 °C 1006 hPa SW 17.7 km/h 29 km/h 69 % 0 mm 308 W/m2
13:19 17.6 °C 11.6 °C 1006 hPa SW 16.1 km/h 29 km/h 68 % 0 mm 346 W/m2
13:24 17.7 °C 11.5 °C 1006 hPa SW 17.7 km/h 32.2 km/h 67 % 0 mm 492 W/m2
13:29 17.8 °C 11.6 °C 1006 hPa SW 17.7 km/h 32.2 km/h 67 % 0 mm 496 W/m2
13:39 18.1 °C 11.7 °C 1005.6 hPa SW 16.1 km/h 29 km/h 66 % 0 mm 519 W/m2
13:44 18.3 °C 11.4 °C 1005.6 hPa SW 16.1 km/h 29 km/h 64 % 0 mm 666 W/m2
13:49 18.3 °C 11.4 °C 1005.6 hPa SW 19.3 km/h 30.6 km/h 64 % 0 mm 729 W/m2
13:55 18.6 °C 11.2 °C 1005.6 hPa SW 20.9 km/h 30.6 km/h 62 % 0 mm 563 W/m2
14:00 18.7 °C 11.3 °C 1005.6 hPa SW 19.3 km/h 33.8 km/h 62 % 0 mm 506 W/m2
14:05 19.1 °C 11.9 °C 1005.6 hPa SW 17.7 km/h 33.8 km/h 63 % 0 mm 1125 W/m2
14:10 19.2 °C 11.7 °C 1005.6 hPa SW 16.1 km/h 25.7 km/h 62 % 0 mm 1176 W/m2
14:20 19.7 °C 11.7 °C 1005.3 hPa SW 17.7 km/h 30.6 km/h 60 % 0 mm 893 W/m2
14:25 19.8 °C 11.3 °C 1005.3 hPa SW 17.7 km/h 30.6 km/h 58 % 0 mm 482 W/m2
14:30 19.6 °C 11.4 °C 1005.3 hPa SW 17.7 km/h 29 km/h 59 % 0 mm 879 W/m2
14:35 19.6 °C 11.1 °C 1005.3 hPa SW 14.5 km/h 22.5 km/h 58 % 0 mm 283 W/m2
14:40 19.6 °C 11.4 °C 1005.3 hPa SW 14.5 km/h 29 km/h 59 % 0 mm 1060 W/m2
14:45 19.6 °C 11.4 °C 1005.3 hPa SW 14.5 km/h 30.6 km/h 59 % 0 mm 432 W/m2
14:50 19.6 °C 11.1 °C 1005.3 hPa SW 16.1 km/h 30.6 km/h 58 % 0 mm 661 W/m2
14:55 19.5 °C 11.3 °C 1005.3 hPa SSW 17.7 km/h 29 km/h 59 % 0 mm 673 W/m2
15:00 19.5 °C 10.8 °C 1005.3 hPa SW 16.1 km/h 25.7 km/h 57 % 0 mm 578 W/m2
15:05 19.4 °C 10.7 °C 1005.3 hPa SW 17.7 km/h 25.7 km/h 57 % 0 mm 561 W/m2
15:10 19.3 °C 10.6 °C 1005 hPa SW 17.7 km/h 29 km/h 57 % 0 mm 605 W/m2
15:15 19.3 °C 10.8 °C 1005 hPa SW 17.7 km/h 29 km/h 58 % 0 mm 438 W/m2
15:20 19.3 °C 10.6 °C 1005 hPa SW 17.7 km/h 32.2 km/h 57 % 0 mm 422 W/m2
15:25 19.2 °C 10.4 °C 1005 hPa SW 17.7 km/h 32.2 km/h 57 % 0 mm 508 W/m2
15:30 19.4 °C 10.9 °C 1005 hPa SSW 16.1 km/h 29 km/h 58 % 0 mm 613 W/m2
15:35 19.7 °C 11.2 °C 1005 hPa SSW 14.5 km/h 29 km/h 58 % 0 mm 457 W/m2
15:40 19.9 °C 10.6 °C 1005 hPa WSW 14.5 km/h 24.1 km/h 55 % 0 mm 587 W/m2
15:45 19.9 °C 10.3 °C 1005 hPa WSW 17.7 km/h 30.6 km/h 54 % 0 mm 679 W/m2
15:50 19.9 °C 10.6 °C 1005 hPa SW 17.7 km/h 30.6 km/h 55 % 0 mm 285 W/m2
15:55 19.6 °C 10.3 °C 1005 hPa SW 17.7 km/h 30.6 km/h 55 % 0 mm 668 W/m2
16:01 19.7 °C 10.7 °C 1005 hPa SW 16.1 km/h 25.7 km/h 56 % 0 mm 596 W/m2
16:06 19.9 °C 10.6 °C 1005 hPa WSW 14.5 km/h 25.7 km/h 55 % 0 mm 656 W/m2
16:11 20 °C 10.4 °C 1005 hPa WSW 14.5 km/h 22.5 km/h 54 % 0 mm 271 W/m2
16:16 19.7 °C 10.7 °C 1005 hPa SW 14.5 km/h 22.5 km/h 56 % 0 mm 299 W/m2
16:21 19.5 °C 10.5 °C 1004.6 hPa SW 14.5 km/h 32.2 km/h 56 % 0 mm 318 W/m2
16:26 19.4 °C 10.1 °C 1004.6 hPa SW 16.1 km/h 35.4 km/h 55 % 0 mm 415 W/m2
16:31 19.6 °C 10.3 °C 1004.6 hPa SW 16.1 km/h 35.4 km/h 55 % 0 mm 345 W/m2
16:36 19.5 °C 10.2 °C 1004.6 hPa SW 16.1 km/h 30.6 km/h 55 % 0 mm 336 W/m2
16:41 19.5 °C 10.5 °C 1004.6 hPa SW 14.5 km/h 25.7 km/h 56 % 0 mm 352 W/m2
16:46 19.6 °C 10.3 °C 1004.6 hPa SW 16.1 km/h 29 km/h 55 % 0 mm 345 W/m2
16:51 19.6 °C 10.6 °C 1004.6 hPa WSW 16.1 km/h 29 km/h 56 % 0 mm 327 W/m2
16:56 19.5 °C 10.8 °C 1004.6 hPa SW 12.9 km/h 22.5 km/h 57 % 0 mm 262 W/m2
17:01 19.6 °C 11.1 °C 1004.6 hPa SW 11.3 km/h 17.7 km/h 58 % 0 mm 264 W/m2
17:06 19.6 °C 10.8 °C 1004.6 hPa SW 11.3 km/h 20.9 km/h 57 % 0 mm 352 W/m2
17:11 19.6 °C 11.1 °C 1004.3 hPa SW 11.3 km/h 20.9 km/h 58 % 0 mm 401 W/m2
17:16 19.7 °C 11.2 °C 1004.3 hPa SW 11.3 km/h 19.3 km/h 58 % 0 mm 489 W/m2
17:21 19.8 °C 11.1 °C 1004.3 hPa WSW 11.3 km/h 17.7 km/h 57 % 0 mm 469 W/m2
17:26 19.8 °C 11.3 °C 1004.3 hPa SW 11.3 km/h 17.7 km/h 58 % 0 mm 269 W/m2
17:31 19.6 °C 10.8 °C 1004.3 hPa SW 11.3 km/h 24.1 km/h 57 % 0 mm 316 W/m2
17:36 19.6 °C 11.1 °C 1004.3 hPa SW 11.3 km/h 24.1 km/h 58 % 0 mm 232 W/m2
17:46 19.7 °C 11.2 °C 1004.3 hPa SW 9.7 km/h 14.5 km/h 58 % 0 mm 230 W/m2
17:51 19.5 °C 11.3 °C 1004.3 hPa SSW 9.7 km/h 16.1 km/h 59 % 0 mm 190 W/m2
17:56 19.3 °C 11.3 °C 1004.3 hPa SSW 11.3 km/h 20.9 km/h 60 % 0 mm 216 W/m2
18:01 19.3 °C 11.3 °C 1004.3 hPa SSW 11.3 km/h 20.9 km/h 60 % 0 mm 218 W/m2
18:06 19.3 °C 11.3 °C 1004.3 hPa SSW 9.7 km/h 19.3 km/h 60 % 0 mm 246 W/m2
18:11 19.3 °C 11.3 °C 1003.9 hPa SSW 9.7 km/h 16.1 km/h 60 % 0 mm 197 W/m2
18:16 19.3 °C 11.3 °C 1003.9 hPa SSW 11.3 km/h 19.3 km/h 60 % 0 mm 155 W/m2
18:21 19.2 °C 11.2 °C 1003.9 hPa SSW 12.9 km/h 19.3 km/h 60 % 0 mm 142 W/m2
18:26 19.2 °C 11.5 °C 1003.9 hPa SSW 9.7 km/h 16.1 km/h 61 % 0 mm 135 W/m2
18:31 19.2 °C 11.5 °C 1003.9 hPa SW 9.7 km/h 14.5 km/h 61 % 0 mm 130 W/m2
18:36 19.2 °C 11.7 °C 1003.9 hPa SW 6.4 km/h 14.5 km/h 62 % 0 mm 153 W/m2
18:41 19.2 °C 11.7 °C 1003.9 hPa SSW 6.4 km/h 12.9 km/h 62 % 0 mm 142 W/m2
18:46 19.1 °C 11.7 °C 1003.9 hPa SSW 8 km/h 14.5 km/h 62 % 0 mm 125 W/m2
18:51 19 °C 11.6 °C 1003.6 hPa SSW 9.7 km/h 14.5 km/h 62 % 0 mm 97 W/m2
18:56 19 °C 11.6 °C 1003.6 hPa SSW 9.7 km/h 14.5 km/h 62 % 0 mm 100 W/m2
19:01 18.9 °C 11.4 °C 1003.6 hPa SSW 8 km/h 14.5 km/h 62 % 0 mm 105 W/m2
19:06 18.9 °C 11.7 °C 1003.6 hPa South 8 km/h 20.9 km/h 63 % 0 mm 91 W/m2
19:11 18.8 °C 11.6 °C 1003.6 hPa SSW 8 km/h 20.9 km/h 63 % 0 mm 83 W/m2
19:14 18.8 °C 11.6 °C 1003.6 hPa SSW 9.7 km/h 16.1 km/h 63 % 0 mm 79 W/m2
19:19 18.7 °C 11.7 °C 1003.6 hPa SSW 9.7 km/h 16.1 km/h 64 % 0 mm 63 W/m2
19:24 18.6 °C 11.9 °C 1003.6 hPa SSW 9.7 km/h 16.1 km/h 65 % 0 mm 56 W/m2
19:29 18.5 °C 11.8 °C 1003.6 hPa SSW 8 km/h 16.1 km/h 65 % 0 mm 47 W/m2
19:34 18.5 °C 11.8 °C 1003.6 hPa SSW 6.4 km/h 12.9 km/h 65 % 0 mm 49 W/m2
19:39 18.4 °C 11.7 °C 1003.6 hPa SSW 8 km/h 17.7 km/h 65 % 0 mm 53 W/m2
19:41 18.4 °C 11.9 °C 1003.6 hPa SSW 8 km/h 17.7 km/h 66 % 0 mm 54 W/m2
19:46 18.3 °C 11.8 °C 1003.6 hPa SSW 8 km/h 17.7 km/h 66 % 0 mm 51 W/m2
19:51 18.3 °C 12.1 °C 1003.6 hPa SSW 8 km/h 16.1 km/h 67 % 0 mm 39 W/m2
19:56 18.2 °C 11.9 °C 1003.3 hPa SSW 9.7 km/h 16.1 km/h 67 % 0 mm 26 W/m2
20:01 18.2 °C 11.9 °C 1003.3 hPa SSW 11.3 km/h 17.7 km/h 67 % 0 mm 21 W/m2
20:06 18.1 °C 12.1 °C 1003.3 hPa SSW 11.3 km/h 22.5 km/h 68 % 0 mm 18 W/m2
20:11 18 °C 12.4 °C 1003.3 hPa South 11.3 km/h 22.5 km/h 70 % 0 mm 16 W/m2
20:16 17.8 °C 12.3 °C 1003.3 hPa South 9.7 km/h 17.7 km/h 70 % 0 mm 11 W/m2
20:27 17.6 °C 12.5 °C 1003.3 hPa SSW 11.3 km/h 19.3 km/h 72 % 0 mm 7 W/m2
20:32 17.4 °C 12.5 °C 1003.3 hPa SSW 11.3 km/h 19.3 km/h 73 % 0 mm 5 W/m2
20:37 17.4 °C 12.5 °C 1003.3 hPa SSW 11.3 km/h 19.3 km/h 73 % 0 mm 5 W/m2
20:42 17.3 °C 12.6 °C 1003.3 hPa SSW 9.7 km/h 14.5 km/h 74 % 0 mm 5 W/m2
20:47 17.3 °C 12.6 °C 1003.3 hPa SSW 8 km/h 14.5 km/h 74 % 0 mm 0 W/m2
20:52 17.2 °C 12.7 °C 1003.3 hPa SSW 8 km/h 14.5 km/h 75 % 0 mm 0 W/m2
20:57 17.2 °C 12.7 °C 1003.3 hPa SSW 8 km/h 14.5 km/h 75 % 0 mm 0 W/m2
21:02 17.1 °C 12.6 °C 1002.9 hPa SSW 11.3 km/h 19.3 km/h 75 % 0 mm 0 W/m2
21:07 17 °C 12.6 °C 1002.9 hPa SSW 9.7 km/h 19.3 km/h 75 % 0 mm 0 W/m2
21:12 17 °C 12.6 °C 1002.9 hPa SSW 9.7 km/h 16.1 km/h 75 % 0 mm 0 W/m2
21:17 16.9 °C 12.4 °C 1003.3 hPa SSW 9.7 km/h 14.5 km/h 75 % 0 mm 0 W/m2
21:22 16.9 °C 12.7 °C 1002.9 hPa SW 8 km/h 12.9 km/h 76 % 0 mm 0 W/m2
21:27 16.9 °C 12.7 °C 1002.9 hPa SW 6.4 km/h 12.9 km/h 76 % 0 mm 0 W/m2
21:32 16.8 °C 12.6 °C 1002.9 hPa SW 4.8 km/h 12.9 km/h 76 % 0 mm 0 W/m2
21:37 16.8 °C 12.7 °C 1002.9 hPa SW 4.8 km/h 8 km/h 77 % 0 mm 0 W/m2
21:42 16.8 °C 12.7 °C 1002.9 hPa SW 4.8 km/h 8 km/h 77 % 0 mm 0 W/m2
21:47 16.8 °C 12.7 °C 1002.9 hPa SW 3.2 km/h 8 km/h 77 % 0 mm 0 W/m2
21:52 16.7 °C 12.8 °C 1002.9 hPa SW 1.6 km/h 6.4 km/h 78 % 0 mm 0 W/m2
21:57 16.7 °C 12.8 °C 1002.9 hPa SW 4.8 km/h 9.7 km/h 78 % 0 mm 0 W/m2
22:02 16.6 °C 12.9 °C 1002.9 hPa SW 6.4 km/h 12.9 km/h 79 % 0 mm 0 W/m2
22:07 16.5 °C 13.1 °C 1002.6 hPa SW 6.4 km/h 12.9 km/h 80 % 0 mm 0 W/m2
22:12 16.4 °C 12.9 °C 1002.9 hPa SW 4.8 km/h 9.7 km/h 80 % 0 mm 0 W/m2
22:17 16.3 °C 13.1 °C 1002.9 hPa SW 6.4 km/h 11.3 km/h 81 % 0 mm 0 W/m2
22:18 16.3 °C 13.1 °C 1002.9 hPa SW 6.4 km/h 11.3 km/h 81 % 0 mm 0 W/m2
22:23 16.1 °C 13 °C 1002.9 hPa SW 4.8 km/h 11.3 km/h 82 % 0 mm 0 W/m2
22:28 16.1 °C 13 °C 1002.6 hPa SSW 1.6 km/h 8 km/h 82 % 0 mm 0 W/m2
22:33 16 °C 13.1 °C 1002.6 hPa SSW 1.6 km/h 6.4 km/h 83 % 0 mm 0 W/m2
22:38 15.9 °C 13 °C 1002.6 hPa SW 3.2 km/h 11.3 km/h 83 % 0 mm 0 W/m2
22:43 15.9 °C 13 °C 1002.6 hPa SW 4.8 km/h 11.3 km/h 83 % 0 mm 0 W/m2
22:44 15.9 °C 13 °C 1002.6 hPa SW 4.8 km/h 11.3 km/h 83 % 0 mm 0 W/m2
22:49 15.8 °C 12.9 °C 1002.6 hPa WSW 3.2 km/h 11.3 km/h 83 % 0 mm 0 W/m2
22:54 15.8 °C 12.9 °C 1002.6 hPa Calm   8 km/h 83 % 0 mm 0 W/m2
22:59 15.8 °C 13.1 °C 1002.6 hPa Calm     84 % 0 mm 0 W/m2
23:04 15.8 °C 13.1 °C 1002.6 hPa Calm   1.6 km/h 84 % 0 mm 0 W/m2
23:09 15.8 °C 13.1 °C 1002.6 hPa West 1.6 km/h 8 km/h 84 % 0 mm 0 W/m2
23:14 15.7 °C 13 °C 1002.6 hPa West 3.2 km/h 8 km/h 84 % 0 mm 0 W/m2
23:19 15.7 °C 13 °C 1002.6 hPa West 1.6 km/h 8 km/h 84 % 0 mm 0 W/m2
23:24 15.6 °C 12.9 °C 1002.6 hPa West 1.6 km/h 8 km/h 84 % 0 mm 0 W/m2
23:29 15.6 °C 13.1 °C 1002.3 hPa Calm   4.8 km/h 85 % 0 mm 0 W/m2
23:34 15.6 °C 13.1 °C 1002.6 hPa Calm   3.2 km/h 85 % 0 mm 0 W/m2
23:39 15.5 °C 13 °C 1002.3 hPa Calm     85 % 0 mm 0 W/m2
23:44 15.4 °C 12.9 °C 1002.3 hPa Calm     85 % 0 mm 0 W/m2
23:49 15.4 °C 12.9 °C 1002.3 hPa Calm     85 % 0 mm 0 W/m2
23:54 15.3 °C 12.8 °C 1002.3 hPa Calm     85 % 0 mm 0 W/m2
23:59 15.3 °C 12.8 °C 1002.3 hPa Calm     85 % 0 mm 0 W/m2
Delerius-Weather
Compliments of Weather Underground - 2.25 mb

Data updates at regular intervals.